Pagrindinis puslapis
METAR-TAF:

METAR-TAF

Oro uostai :

Kunmingas, Kinija

platuma: 25-01N, ilguma: 102-41E, Aukštis: 1892 m

Dabartinis oras

Ataskaita buvo paskelbta 16 minutes, ne 04:00 UTC
Vėjas 17 kt iš Pietvakarių
Temperatūra 15°C
Drėgmė 55%
Slėgis 1026 hPa
Matomumas 10 km arba daugiau
Mažai debesys ne aukštis 2300 ft

METAR: ZPPP 200400Z 22009MPS 9999 FEW023 15/06 Q1026 NOSIG

Laikas: 12:16 (04:16 UTC)

Prognozė

Ataskaita buvo paskelbta 7 valandos ir 14 minutes, ne 21:02 UTC
Prognozė galioja nuo 20 metu 00 UTC su 20 metu 24 UTC
Vėjas 14 kt iš Pietvakarių
Matomumas 10 km arba daugiau
Išsisklaidę debesys ne aukštis 2600 ft
Tapsmas
nuo 20 metu 03 UTC su 20 metu 04 UTC
Vėjas 23 kt iš Pietvakarių su gūsio iki 33 kt
Tapsmas
nuo 20 metu 10 UTC su 20 metu 11 UTC
Vėjas 14 kt iš Pietvakarių

TAF: ZPPP 192102Z 2000/2024 23007MPS 9999 SCT026 TX18/2008Z TN05/2023Z BECMG 2003/2004 23012G17MPS BECMG 2010/2011 23007MPS

Orai ataskaitas ir orų prognozės (METAR, TAF).

turimą stotys yra geltonos ir raudonos taškus žemėlapyje.

Perkelti pele per norėdami pamatyti stoties vardą.

Tada spustelėkite, norėdami matyti oro stebėjimo ir prognozės.

Norėdami pakeisti žemėlapį: spustelėkite ant žalios mygtukų su juodo kryžiaus žemyn,; žalią mygtuką su brūkšneliu, jei norite nutolinti; arba žalių rodyklių gretimoms žemėlapius.


METAR-TAF: